Time;durP1;ratioP1;P1;durP2;ratioP2;P2;SDS_P1;SDS_P2;PMS_P1;PMS_P2;Temp;Humidity;BMP_temperature;BMP_pressure;BME280_temperature;BME280_humidity;BME280_pressure;Samples;Min_cycle;Max_cycle;Signal;HPM_P1;HPM_P2
2022/10/11 00:02:16;384413.00;1.28;663.01;52465.00;0.17;91.45;;;;;19.60;2.70;;;;;;2272445;61;1549;-86
2022/10/11 00:04:43;390310.00;1.30;673.15;0.00;0.00;0.62;;;;;19.50;1.50;;;;;;2272408;61;1911;-86
2022/10/11 00:07:10;355213.00;1.18;612.82;52914.00;0.18;92.23;;;;;19.50;2.10;;;;;;2272495;61;994;-85
2022/10/11 00:09:39;151659.00;0.51;262.67;9753.00;0.03;17.52;;;;;19.60;1.10;;;;;;2272489;61;1012;-87
2022/10/11 00:12:06;226651.00;0.76;391.79;46270.00;0.15;80.73;;;;;19.70;2.70;;;;;;2272501;61;1215;-86
2022/10/11 00:14:33;627076.00;2.09;1080.99;33011.00;0.11;57.79;;;;;19.60;3.30;;;;;;2272413;61;1363;-86
2022/10/11 00:17:00;392199.00;1.31;676.39;0.00;0.00;0.62;;;;;19.50;3.80;;;;;;2272534;61;1003;-86
2022/10/11 00:19:27;254340.00;0.85;439.42;8852.00;0.03;15.96;;;;;19.50;2.40;;;;;;2272494;61;1076;-87
2022/10/11 00:21:55;405739.00;1.35;699.67;0.00;0.00;0.62;;;;;19.50;2.60;;;;;;2272397;61;1058;-87
2022/10/11 00:24:22;305893.00;1.02;528.05;0.00;0.00;0.62;;;;;19.60;3.70;;;;;;2272363;61;1918;-86
2022/10/11 00:26:50;371918.00;1.24;641.53;0.00;0.00;0.62;;;;;19.60;3.10;;;;;;2272349;61;1167;-86
2022/10/11 00:29:17;283301.00;0.94;489.21;43767.00;0.15;76.41;;;;;19.50;3.70;;;;;;2272293;61;1432;-85
2022/10/11 00:31:44;429522.00;1.43;740.56;0.00;0.00;0.62;;;;;19.50;2.90;;;;;;2272383;61;1627;-87
2022/10/11 00:34:12;485005.00;1.62;836.01;25674.00;0.09;45.09;;;;;19.50;3.80;;;;;;2272412;61;1321;-85
2022/10/11 00:36:39;357612.00;1.19;616.94;0.00;0.00;0.62;;;;;19.50;3.90;;;;;;2272325;61;1547;-86
2022/10/11 00:39:06;400685.00;1.34;690.98;88896.00;0.30;154.40;;;;;19.60;3.70;;;;;;2272370;61;2064;-86
2022/10/11 00:41:39;406919.00;1.36;701.70;55805.00;0.19;97.22;;;;;19.50;1.60;;;;;;2272402;61;958;-87
2022/10/11 00:44:17;341340.00;1.14;588.98;0.00;0.00;0.62;;;;;19.60;3.40;;;;;;2272249;61;2000;-87
2022/10/11 00:46:51;252439.00;0.84;436.15;0.00;0.00;0.62;;;;;19.50;4.20;;;;;;2272293;61;1168;-87
2022/10/11 00:49:27;343647.00;1.15;592.94;8644.00;0.03;15.60;;;;;19.60;3.40;;;;;;2272248;61;1019;-86
2022/10/11 00:51:59;585255.00;1.95;1008.77;43897.00;0.15;76.63;;;;;19.70;2.20;;;;;;2272212;61;1042;-89
2022/10/11 00:54:29;189439.00;0.63;327.74;0.00;0.00;0.62;;;;;19.70;1.00;;;;;;2272125;61;1691;-86
2022/10/11 00:57:02;440913.00;1.47;760.15;0.00;0.00;0.62;;;;;19.70;2.60;;;;;;2272328;61;1036;-85
2022/10/11 00:59:36;259846.00;0.87;448.88;0.00;0.00;0.62;;;;;19.80;1.00;;;;;;2272357;61;952;-88
2022/10/11 01:02:04;337019.00;1.12;581.55;0.00;0.00;0.62;;;;;19.80;2.00;;;;;;2272432;61;1129;-87
2022/10/11 01:04:31;385388.00;1.28;664.69;31855.00;0.11;55.79;;;;;19.70;1.90;;;;;;2272235;61;2010;-87
2022/10/11 01:07:00;377413.00;1.26;650.98;0.00;0.00;0.62;;;;;19.80;2.40;;;;;;2272279;61;1164;-85
2022/10/11 01:09:27;107206.00;0.36;186.01;0.00;0.00;0.62;;;;;19.70;2.20;;;;;;2272245;61;1084;-85
2022/10/11 01:11:58;369803.00;1.23;637.90;31535.00;0.11;55.24;;;;;19.60;3.00;;;;;;2272253;61;1017;-85
2022/10/11 01:14:54;388246.00;1.29;669.60;0.00;0.00;0.62;;;;;19.80;1.80;;;;;;2272256;61;1415;-87
2022/10/11 01:17:30;557599.00;1.86;961.06;67501.00;0.23;117.44;;;;;19.80;2.30;;;;;;2271147;61;1312;-87
2022/10/11 01:20:34;408990.00;1.36;705.26;0.00;0.00;0.62;;;;;19.70;2.20;;;;;;2268313;61;1143;-85
2022/10/11 01:23:50;307856.00;1.03;531.42;0.00;0.00;0.62;;;;;19.60;3.50;;;;;;2268189;61;2196;-87
2022/10/11 01:27:07;308691.00;1.03;532.86;0.00;0.00;0.62;;;;;19.60;3.40;;;;;;2271874;61;2023;-86
2022/10/11 01:29:48;349161.00;1.16;602.42;71981.00;0.24;125.18;;;;;19.40;4.00;;;;;;2265930;61;1073;-87
2022/10/11 01:32:23;571460.00;1.90;984.97;63407.00;0.21;110.37;;;;;19.30;4.70;;;;;;2272245;61;1537;-86
2022/10/11 01:34:57;352393.00;1.17;607.97;67920.00;0.23;118.17;;;;;19.20;5.60;;;;;;2272170;61;1719;-89
2022/10/11 01:37:30;374104.00;1.25;645.29;70356.00;0.23;122.38;;;;;19.40;3.90;;;;;;2272254;61;1017;-87
2022/10/11 01:40:04;558985.00;1.86;963.45;56743.00;0.19;98.85;;;;;19.60;2.90;;;;;;2272774;61;1636;-88
2022/10/11 01:42:32;755446.00;2.52;1303.53;89383.00;0.30;155.24;;;;;19.40;3.90;;;;;;2272962;61;1471;-87
2022/10/11 01:44:59;612633.00;2.04;1056.04;72641.00;0.24;126.32;;;;;19.10;5.10;;;;;;2272861;61;2017;-87
2022/10/11 01:47:28;749885.00;2.50;1293.86;108743.00;0.36;188.66;;;;;19.10;4.40;;;;;;2272805;61;1179;-86
2022/10/11 01:49:58;910862.00;3.04;1575.21;157453.00;0.52;272.65;;;;;19.20;4.00;;;;;;2272933;61;1510;-87
2022/10/11 01:52:30;837018.00;2.79;1445.76;70623.00;0.24;122.84;;;;;19.20;3.80;;;;;;2272920;61;938;-88
2022/10/11 01:55:13;659292.00;2.20;1136.72;123981.00;0.41;214.95;;;;;19.20;4.00;;;;;;2272813;61;1420;-87
2022/10/11 01:58:06;606959.00;2.02;1046.24;70002.00;0.23;121.76;;;;;19.20;4.30;;;;;;2272876;61;1047;-87
2022/10/11 02:00:46;600690.00;2.00;1035.41;11598.00;0.04;20.72;;;;;19.30;2.10;;;;;;2272907;61;1104;-88
2022/10/11 02:03:28;382468.00;1.27;659.67;0.00;0.00;0.62;;;;;19.50;1.60;;;;;;2272814;61;1090;-87
2022/10/11 02:06:01;706472.00;2.35;1218.46;98350.00;0.33;170.72;;;;;19.30;3.00;;;;;;2272821;61;1915;-89
2022/10/11 02:08:38;678405.00;2.26;1169.81;0.00;0.00;0.62;;;;;19.20;2.50;;;;;;2272992;61;998;-87
2022/10/11 02:11:10;948244.00;3.16;1641.01;35919.00;0.12;62.83;;;;;19.20;2.90;;;;;;2272943;61;1039;-89
2022/10/11 02:13:42;1148456.00;3.83;1997.30;93181.00;0.31;161.80;;;;;19.10;3.20;;;;;;2272896;61;1423;-88
2022/10/11 02:16:14;531014.00;1.77;915.24;0.00;0.00;0.62;;;;;19.10;2.60;;;;;;2272886;61;1023;-88
2022/10/11 02:18:47;1209743.00;4.03;2107.85;0.00;0.00;0.62;;;;;19.10;3.20;;;;;;2272879;61;1037;-88
2022/10/11 02:21:20;755274.00;2.52;1303.23;10056.00;0.03;18.05;;;;;19.10;2.90;;;;;;2272857;61;1063;-89
2022/10/11 02:23:52;985244.00;3.28;1706.35;7093.00;0.02;12.91;;;;;19.00;2.70;;;;;;2272796;61;1425;-86
2022/10/11 02:26:23;626877.00;2.09;1080.65;16316.00;0.05;28.89;;;;;19.20;2.60;;;;;;2272693;61;1920;-87
2022/10/11 02:28:53;677028.00;2.26;1167.42;0.00;0.00;0.62;;;;;19.20;3.20;;;;;;2272825;61;1229;-88
2022/10/11 02:31:22;695697.00;2.32;1199.78;0.00;0.00;0.62;;;;;19.20;2.40;;;;;;2272805;61;1141;-88
2022/10/11 02:33:58;881794.00;2.94;1524.17;58228.00;0.19;101.41;;;;;19.30;2.60;;;;;;2272672;61;1319;-89
2022/10/11 02:36:36;898291.00;2.99;1553.12;86590.00;0.29;150.42;;;;;19.30;3.00;;;;;;2272720;61;1353;-87
2022/10/11 02:39:12;897013.00;2.99;1550.87;45493.00;0.15;79.39;;;;;19.40;2.40;;;;;;2272752;61;1205;-87
2022/10/11 02:41:42;750934.00;2.50;1295.68;0.00;0.00;0.62;;;;;19.20;3.60;;;;;;2272712;61;1159;-87
2022/10/11 02:44:13;744088.00;2.48;1283.78;52394.00;0.17;91.33;;;;;19.10;3.10;;;;;;2272765;61;1261;-89
2022/10/11 02:46:43;338438.00;1.13;583.99;0.00;0.00;0.62;;;;;19.20;2.90;;;;;;2272668;61;1938;-87
2022/10/11 02:49:17;697891.00;2.33;1203.58;6724.00;0.02;12.27;;;;;19.10;2.90;;;;;;2274626;55;3763;-87
2022/10/11 02:51:44;385194.00;1.28;664.35;20584.00;0.07;36.28;;;;;19.10;3.50;;;;;;2276670;61;1144;-87
2022/10/11 02:54:11;479174.00;1.60;825.98;0.00;0.00;0.62;;;;;19.00;2.80;;;;;;2276679;61;1366;-85
2022/10/11 02:56:38;783221.00;2.61;1351.88;33349.00;0.11;58.38;;;;;19.00;2.10;;;;;;2276698;61;1431;-85
2022/10/11 02:59:05;493020.00;1.64;849.81;70863.00;0.24;123.25;;;;;19.10;2.40;;;;;;2276800;61;1113;-87
2022/10/11 03:01:32;825425.00;2.75;1425.50;0.00;0.00;0.62;;;;;19.30;2.60;;;;;;2276637;61;1057;-86
2022/10/11 03:03:58;1089948.00;3.63;1892.46;80679.00;0.27;140.21;;;;;19.20;2.90;;;;;;2276738;61;1395;-86
2022/10/11 03:06:27;710561.00;2.37;1225.56;0.00;0.00;0.62;;;;;19.00;3.80;;;;;;2276721;61;1986;-85
2022/10/11 03:08:54;581783.00;1.94;1002.78;0.00;0.00;0.62;;;;;19.00;4.00;;;;;;2276635;61;1520;-87
2022/10/11 03:11:21;573570.00;1.91;988.61;0.00;0.00;0.62;;;;;19.00;3.70;;;;;;2276673;61;1056;-87
2022/10/11 03:13:48;749995.00;2.50;1294.05;3770.00;0.01;7.15;;;;;18.60;5.10;;;;;;2276634;61;1436;-86
2022/10/11 03:16:15;599944.00;2.00;1034.12;0.00;0.00;0.62;;;;;18.60;5.70;;;;;;2276692;61;1549;-87
2022/10/11 03:18:42;775672.00;2.59;1338.73;0.00;0.00;0.62;;;;;18.50;6.00;;;;;;2276683;61;1057;-87
2022/10/11 03:21:09;994675.00;3.32;1723.04;103867.00;0.35;180.25;;;;;18.70;5.60;;;;;;2276719;61;1279;-88
2022/10/11 03:23:38;962618.00;3.21;1666.37;9377.00;0.03;16.87;;;;;18.90;5.40;;;;;;2276276;61;1437;-85
2022/10/11 03:26:06;833649.00;2.78;1439.87;103662.00;0.35;179.89;;;;;18.90;5.40;;;;;;2280884;40;3576;-88
2022/10/11 03:28:33;552743.00;1.84;952.69;21287.00;0.07;37.50;;;;;18.80;5.30;;;;;;2272532;61;1143;-88
2022/10/11 03:30:59;626026.00;2.09;1079.18;0.00;0.00;0.62;;;;;18.60;5.90;;;;;;2272533;61;1458;-87
2022/10/11 03:33:26;739699.00;2.47;1276.15;100838.00;0.34;175.02;;;;;18.70;5.60;;;;;;2272534;61;1390;-88
2022/10/11 03:35:53;637493.00;2.12;1099.00;78700.00;0.26;136.79;;;;;18.80;6.40;;;;;;2272609;61;1072;-88
2022/10/11 03:38:22;417207.00;1.39;719.39;0.00;0.00;0.62;;;;;18.90;6.00;;;;;;2272591;61;907;-87
2022/10/11 03:40:51;684298.00;2.28;1180.02;0.00;0.00;0.62;;;;;18.90;5.50;;;;;;2272537;61;1090;-87
2022/10/11 03:43:17;635183.00;2.12;1095.01;0.00;0.00;0.62;;;;;18.70;5.30;;;;;;2272510;61;1310;-86
2022/10/11 03:45:44;438792.00;1.46;756.51;0.00;0.00;0.62;;;;;18.60;6.10;;;;;;2272392;61;1915;-90
2022/10/11 03:48:11;393079.00;1.31;677.91;0.00;0.00;0.62;;;;;18.70;5.20;;;;;;2272540;61;1219;-87
2022/10/11 03:50:39;729330.00;2.43;1258.14;0.00;0.00;0.62;;;;;18.90;5.40;;;;;;2272513;61;1216;-87
2022/10/11 03:53:07;312869.00;1.04;540.04;0.00;0.00;0.62;;;;;19.00;5.40;;;;;;2272550;61;1025;-88
2022/10/11 03:55:34;522968.00;1.74;901.38;133014.00;0.44;230.53;;;;;18.90;5.40;;;;;;2272487;61;1281;-87
2022/10/11 03:58:02;355470.00;1.18;613.26;0.00;0.00;0.62;;;;;18.80;5.20;;;;;;2272530;61;1043;-87
2022/10/11 04:00:29;158348.00;0.53;274.19;0.00;0.00;0.62;;;;;18.90;5.40;;;;;;2272482;61;1120;-86
2022/10/11 04:02:56;282190.00;0.94;487.30;33337.00;0.11;58.36;;;;;18.70;5.20;;;;;;2272289;61;1047;-86
2022/10/11 04:05:23;493581.00;1.65;850.77;0.00;0.00;0.62;;;;;18.60;5.80;;;;;;2272429;61;1917;-87
2022/10/11 04:07:49;393135.00;1.31;678.00;10531.00;0.04;18.87;;;;;18.50;6.40;;;;;;2272474;61;1034;-87
2022/10/11 04:10:16;476370.00;1.59;821.15;0.00;0.00;0.62;;;;;18.50;6.00;;;;;;2272419;61;1068;-87
2022/10/11 04:12:43;362055.00;1.21;624.58;0.00;0.00;0.62;;;;;18.50;6.20;;;;;;2272505;61;1050;-87
2022/10/11 04:15:12;692023.00;2.31;1193.41;0.00;0.00;0.62;;;;;18.70;5.20;;;;;;2272453;61;1358;-88
2022/10/11 04:17:40;451331.00;1.50;778.07;0.00;0.00;0.62;;;;;18.80;5.30;;;;;;2272480;61;1146;-88
2022/10/11 04:20:08;684659.00;2.28;1180.65;97697.00;0.33;169.60;;;;;18.70;5.20;;;;;;2272466;61;1160;-88
2022/10/11 04:22:35;528443.00;1.76;910.81;0.00;0.00;0.62;;;;;18.60;5.80;;;;;;2272227;61;1114;-86
2022/10/11 04:25:02;580937.00;1.94;1001.32;38028.00;0.13;66.48;;;;;18.60;6.10;;;;;;2272348;61;1386;-88
2022/10/11 04:27:30;448458.00;1.49;773.13;0.00;0.00;0.62;;;;;18.50;6.20;;;;;;2272386;61;1938;-89
2022/10/11 04:29:56;447501.00;1.49;771.48;27944.00;0.09;49.02;;;;;18.10;7.70;;;;;;2272420;61;995;-87
2022/10/11 04:32:25;533467.00;1.78;919.47;0.00;0.00;0.62;;;;;17.70;9.40;;;;;;2272325;61;1072;-86
2022/10/11 04:34:52;629914.00;2.10;1085.90;0.00;0.00;0.62;;;;;17.60;10.50;;;;;;2272231;61;1386;-87
2022/10/11 04:37:19;435663.00;1.45;751.12;35770.00;0.12;62.57;;;;;17.90;9.70;;;;;;2272263;61;1437;-88
2022/10/11 04:39:46;531805.00;1.77;916.60;0.00;0.00;0.62;;;;;18.10;8.50;;;;;;2272277;61;1040;-88
2022/10/11 04:42:13;392911.00;1.31;677.62;0.00;0.00;0.62;;;;;18.20;8.30;;;;;;2272413;61;1128;-87
2022/10/11 04:44:39;761851.00;2.54;1314.67;12853.00;0.04;22.89;;;;;18.30;8.10;;;;;;2272313;61;1366;-87
2022/10/11 04:47:06;768826.00;2.56;1326.81;65039.00;0.22;113.19;;;;;18.40;7.30;;;;;;2272288;61;1988;-87
2022/10/11 04:49:35;874107.00;2.91;1510.69;41169.00;0.14;71.91;;;;;18.60;6.30;;;;;;2272318;61;1302;-85
2022/10/11 04:52:01;562940.00;1.88;970.27;0.00;0.00;0.62;;;;;18.50;7.30;;;;;;2272220;61;948;-87
2022/10/11 04:54:29;117752224.00;392.51;66136224.00;9310.00;0.03;16.75;;;;;18.60;6.30;;;;;;2272267;61;1632;-86
2022/10/11 04:56:55;716142.00;2.39;1235.24;105244.00;0.35;182.62;;;;;18.60;6.50;;;;;;2272280;61;1456;-87
2022/10/11 04:59:22;790414.00;2.63;1364.41;26013.00;0.09;45.68;;;;;18.80;6.70;;;;;;2272311;61;1003;-86
2022/10/11 05:01:49;953399.00;3.18;1650.11;0.00;0.00;0.62;;;;;18.70;6.20;;;;;;2272174;61;1620;-87
2022/10/11 05:04:16;755896.00;2.52;1304.31;0.00;0.00;0.62;;;;;18.80;6.40;;;;;;2272199;61;1333;-87
2022/10/11 05:06:45;626057.00;2.09;1079.23;0.00;0.00;0.62;;;;;19.00;5.50;;;;;;2272154;61;2002;-86
2022/10/11 05:09:12;786988.00;2.62;1358.44;17143.00;0.06;30.32;;;;;19.00;5.40;;;;;;2272292;61;1155;-86
2022/10/11 05:11:39;697950.00;2.33;1203.68;25232.00;0.08;44.33;;;;;19.20;5.50;;;;;;2272252;61;1132;-87
2022/10/11 05:14:06;117737256.00;392.46;66110984.00;0.00;0.00;0.62;;;;;19.20;5.40;;;;;;2272465;61;1357;-87
2022/10/11 05:16:33;780471.00;2.60;1347.09;34505.00;0.12;60.38;;;;;19.00;5.40;;;;;;2272897;61;1586;-86
2022/10/11 05:19:00;586546.00;1.96;1010.99;17073.00;0.06;30.20;;;;;19.00;5.60;;;;;;2272935;61;1069;-86
2022/10/11 05:21:29;714094.00;2.38;1231.69;39969.00;0.13;69.83;;;;;18.90;5.50;;;;;;2272885;61;1146;-87
2022/10/11 05:23:58;852983.00;2.84;1473.69;50539.00;0.17;88.12;;;;;19.00;5.50;;;;;;2272879;61;1295;-87
2022/10/11 05:26:26;416111.00;1.39;717.50;0.00;0.00;0.62;;;;;19.00;5.50;;;;;;2272835;61;1926;-86
2022/10/11 05:28:54;689598.00;2.30;1189.20;55373.00;0.18;96.48;;;;;19.00;5.40;;;;;;2272912;61;1162;-87
2022/10/11 05:31:21;601348.00;2.00;1036.55;0.00;0.00;0.62;;;;;19.10;5.40;;;;;;2272880;61;1103;-86
2022/10/11 05:33:48;498286.00;1.66;858.87;42917.00;0.14;74.93;;;;;19.10;5.50;;;;;;2272761;61;1362;-85
2022/10/11 05:36:15;602760.00;2.01;1038.99;0.00;0.00;0.62;;;;;19.10;5.70;;;;;;2272806;61;1310;-88
2022/10/11 05:38:42;784456.00;2.61;1354.03;25370.00;0.08;44.57;;;;;19.20;5.60;;;;;;2272810;61;1594;-86
2022/10/11 05:41:13;927302.00;3.09;1604.12;0.00;0.00;0.62;;;;;19.40;5.70;;;;;;2272631;61;1183;-87
2022/10/11 05:43:40;448490.00;1.49;773.19;37237.00;0.12;65.11;;;;;19.40;4.70;;;;;;2272863;61;1444;-87
2022/10/11 05:46:07;117460672.00;391.54;65645756.00;54555.00;0.18;95.06;;;;;19.30;5.50;;;;;;2272692;61;2004;-89
2022/10/11 05:48:34;531506.00;1.77;916.09;16095.00;0.05;28.51;;;;;19.20;5.60;;;;;;2272735;61;1008;-85
2022/10/11 05:51:02;389797.00;1.30;672.27;0.00;0.00;0.62;;;;;19.10;5.50;;;;;;2272788;61;1624;-85
2022/10/11 05:53:29;781439.00;2.60;1348.77;0.00;0.00;0.62;;;;;19.00;5.60;;;;;;2272674;61;1347;-86
2022/10/11 05:55:56;691264.00;2.30;1192.09;34187.00;0.11;59.83;;;;;19.10;5.70;;;;;;2272700;61;1507;-85
2022/10/11 05:58:25;692516.00;2.31;1194.26;7765.00;0.03;14.08;;;;;19.00;5.40;;;;;;2272723;61;1047;-86
2022/10/11 06:00:53;669855.00;2.23;1155.00;0.00;0.00;0.62;;;;;19.00;6.30;;;;;;2272835;61;1107;-87
2022/10/11 06:03:20;655006.00;2.18;1129.30;19205.00;0.06;33.89;;;;;19.30;5.40;;;;;;2272711;61;1508;-86
2022/10/11 06:05:47;898607.00;3.00;1553.67;44068.00;0.15;76.93;;;;;19.40;5.70;;;;;;2272757;61;2001;-87
2022/10/11 06:08:16;684989.00;2.28;1181.22;0.00;0.00;0.62;;;;;19.20;5.60;;;;;;2272741;61;1042;-87
2022/10/11 06:10:43;294477.00;0.98;508.43;0.00;0.00;0.62;;;;;19.30;5.70;;;;;;2272730;61;1134;-86
2022/10/11 06:13:10;492886.00;1.64;849.58;0.00;0.00;0.62;;;;;19.60;5.70;;;;;;2272722;61;980;-88
2022/10/11 06:15:40;872382.00;2.91;1507.66;63359.00;0.21;110.28;;;;;19.60;5.20;;;;;;2272618;61;1474;-88
2022/10/11 06:18:07;401230.00;1.34;691.92;44266.00;0.15;77.27;;;;;19.60;4.80;;;;;;2272652;61;1603;-88
2022/10/11 06:20:34;333192.00;1.11;574.97;0.00;0.00;0.62;;;;;19.50;4.50;;;;;;2272711;61;1146;-88
2022/10/11 06:23:01;277855.00;0.93;479.85;0.00;0.00;0.62;;;;;19.60;4.20;;;;;;2272650;61;1715;-85
2022/10/11 06:25:28;399006.00;1.33;688.10;0.00;0.00;0.62;;;;;19.60;4.70;;;;;;2272395;61;1345;-87
2022/10/11 06:27:55;733747.00;2.45;1265.81;56309.00;0.19;98.10;;;;;19.50;4.90;;;;;;2272614;61;2005;-85
2022/10/11 06:30:22;333007.00;1.11;574.65;0.00;0.00;0.62;;;;;19.40;5.60;;;;;;2272703;61;1112;-86
2022/10/11 06:32:50;861429.00;2.87;1488.47;100406.00;0.33;174.27;;;;;19.20;5.90;;;;;;2272643;61;1406;-87
2022/10/11 06:35:17;566006.00;1.89;975.56;0.00;0.00;0.62;;;;;19.10;6.70;;;;;;2272528;61;1642;-86
2022/10/11 06:37:44;524976.00;1.75;904.84;0.00;0.00;0.62;;;;;18.90;7.40;;;;;;2272628;61;1749;-88
2022/10/11 06:40:12;522457.00;1.74;900.50;0.00;0.00;0.62;;;;;18.80;7.90;;;;;;2272669;61;1554;-89
2022/10/11 06:42:39;1093167.00;3.64;1898.21;115965.00;0.39;201.12;;;;;18.70;8.10;;;;;;2272691;61;916;-90
2022/10/11 06:45:07;845967.00;2.82;1461.41;134711.00;0.45;233.45;;;;;18.60;8.70;;;;;;2272545;61;1747;-87
2022/10/11 06:47:34;791235.00;2.64;1365.84;61216.00;0.20;106.58;;;;;18.60;8.00;;;;;;2272569;61;1915;-87
2022/10/11 06:50:05;1083782.00;3.61;1881.44;35771.00;0.12;62.57;;;;;18.60;8.60;;;;;;2272495;61;957;-88
2022/10/11 06:52:32;625250.00;2.08;1077.84;17302.00;0.06;30.60;;;;;18.40;8.50;;;;;;2272514;61;1570;-87
2022/10/11 06:54:59;526320.00;1.75;907.15;68906.00;0.23;119.87;;;;;18.40;8.80;;;;;;2272499;61;1691;-88
2022/10/11 06:57:27;543400.00;1.81;936.58;33101.00;0.11;57.95;;;;;18.30;9.70;;;;;;2272571;61;924;-89
2022/10/11 06:59:54;940687.00;3.14;1627.69;87473.00;0.29;151.94;;;;;18.40;9.10;;;;;;2272576;61;941;-86
2022/10/11 07:02:21;634832.00;2.12;1094.40;0.00;0.00;0.62;;;;;18.40;8.70;;;;;;2272432;61;1499;-88
2022/10/11 07:04:48;565511.00;1.89;974.70;0.00;0.00;0.62;;;;;18.40;9.00;;;;;;2272419;61;1723;-87
2022/10/11 07:07:17;860589.00;2.87;1487.00;69871.00;0.23;121.54;;;;;18.40;9.00;;;;;;2272331;61;2010;-87
2022/10/11 07:09:44;548434.00;1.83;945.26;33836.00;0.11;59.22;;;;;18.10;9.40;;;;;;2272324;61;1575;-87
2022/10/11 07:12:11;491316.00;1.64;846.87;51908.00;0.17;90.49;;;;;18.30;10.10;;;;;;2272518;61;964;-86
2022/10/11 07:14:38;375696.00;1.25;648.03;14414.00;0.05;25.60;;;;;18.30;10.50;;;;;;2272398;61;1429;-87
2022/10/11 07:17:05;765305.00;2.55;1320.68;4958.00;0.02;9.21;;;;;18.30;9.70;;;;;;2272215;61;1009;-87
2022/10/11 07:19:47;518805.00;1.73;894.21;105712.00;0.35;183.43;;;;;18.30;9.90;;;;;;2270132;61;1598;-88
2022/10/11 07:22:18;718628.00;2.40;1239.56;62125.00;0.21;108.15;;;;;18.50;10.40;;;;;;2272447;61;1491;-86
2022/10/11 07:24:47;415461.00;1.38;716.39;3996.00;0.01;7.55;;;;;18.20;10.30;;;;;;2272372;61;1585;-86
2022/10/11 07:27:18;294583.00;0.98;508.61;0.00;0.00;0.62;;;;;17.90;11.00;;;;;;2272424;61;2010;-87
2022/10/11 07:29:45;983434.00;3.28;1703.15;119723.00;0.40;207.60;;;;;17.90;11.10;;;;;;2272425;61;1058;-85
2022/10/11 07:32:12;395012.00;1.32;681.23;0.00;0.00;0.62;;;;;17.70;12.30;;;;;;2272522;61;1061;-84
2022/10/11 07:34:40;488903.00;1.63;842.72;7499.00;0.02;13.62;;;;;17.50;13.10;;;;;;2272382;61;1570;-86
2022/10/11 07:37:07;701794.00;2.34;1210.35;100050.00;0.33;173.66;;;;;17.20;13.70;;;;;;2272418;61;1392;-86
2022/10/11 07:39:36;687768.00;2.29;1186.03;65748.00;0.22;114.41;;;;;16.90;15.10;;;;;;2272406;61;930;-88
2022/10/11 07:42:12;1121452.00;3.74;1948.83;97497.00;0.32;169.25;;;;;17.00;15.50;;;;;;2272399;61;1057;-87
2022/10/11 07:44:40;127125008.00;423.75;83237328.00;99276.00;0.33;172.32;;;;;17.10;15.20;;;;;;2272288;61;1567;-85
2022/10/11 07:47:09;1010875.00;3.37;1751.74;174870.00;0.58;302.65;;;;;17.20;14.70;;;;;;2272345;61;1915;-88
2022/10/11 07:49:41;677678.00;2.26;1168.55;32454.00;0.11;56.83;;;;;17.40;13.80;;;;;;2272427;61;1173;-87
2022/10/11 07:52:08;399472.00;1.33;688.90;25214.00;0.08;44.30;;;;;17.60;13.70;;;;;;2272345;61;869;-87
2022/10/11 07:54:38;1062504.00;3.54;1843.50;55802.00;0.19;97.22;;;;;17.60;11.80;;;;;;2272372;61;1679;-88
2022/10/11 07:57:07;651191.00;2.17;1122.70;47629.00;0.16;83.09;;;;;17.40;12.70;;;;;;2272330;61;1459;-88
2022/10/11 07:59:37;557265.00;1.86;960.48;0.00;0.00;0.62;;;;;17.70;12.90;;;;;;2272373;61;1458;-89
2022/10/11 08:02:04;377078.00;1.26;650.40;95700.00;0.32;166.15;;;;;17.80;11.80;;;;;;2272343;61;965;-88
2022/10/11 08:04:31;513690.00;1.71;885.40;22986.00;0.08;40.44;;;;;17.80;12.50;;;;;;2272273;61;1482;-87
2022/10/11 08:06:58;593092.00;1.98;1022.29;27177.00;0.09;47.70;;;;;18.00;11.50;;;;;;2272367;61;1915;-88
2022/10/11 08:09:25;818134.00;2.73;1412.77;111316.00;0.37;193.10;;;;;18.00;11.00;;;;;;2272410;61;1041;-87
2022/10/11 08:11:54;1021506.00;3.41;1770.60;81577.00;0.27;141.76;;;;;18.10;11.40;;;;;;2272344;61;1560;-86
2022/10/11 08:14:21;708627.00;2.36;1222.20;93931.00;0.31;163.09;;;;;18.00;10.60;;;;;;2272270;61;1667;-85
2022/10/11 08:16:48;731804.00;2.44;1262.44;70234.00;0.23;122.16;;;;;17.70;11.40;;;;;;2272268;61;1593;-88
2022/10/11 08:19:17;582978.00;1.94;1004.84;0.00;0.00;0.62;;;;;17.60;11.80;;;;;;2272331;61;1566;-87
2022/10/11 08:21:44;593296.00;1.98;1022.65;42866.00;0.14;74.85;;;;;17.80;11.90;;;;;;2272431;61;1157;-85
2022/10/11 08:24:13;778976.00;2.60;1344.48;54318.00;0.18;94.65;;;;;17.70;11.80;;;;;;2272245;61;1534;-86
2022/10/11 08:26:41;725014.00;2.42;1250.64;114791.00;0.38;199.10;;;;;17.30;13.20;;;;;;2272232;61;2074;-86
2022/10/11 08:29:10;875209.00;2.92;1512.62;102333.00;0.34;177.60;;;;;17.50;14.20;;;;;;2272320;61;1297;-87
2022/10/11 08:31:37;971375.00;3.24;1681.84;232668.00;0.78;402.14;;;;;17.60;12.70;;;;;;2272321;61;1253;-86
2022/10/11 08:34:07;561005.00;1.87;966.93;9315.00;0.03;16.76;;;;;17.60;12.70;;;;;;2272268;61;1256;-85
2022/10/11 08:36:34;930716.00;3.10;1610.13;4182.00;0.01;7.87;;;;;17.40;12.20;;;;;;2272280;61;1001;-85
2022/10/11 08:39:01;381515.00;1.27;658.03;0.00;0.00;0.62;;;;;17.60;11.80;;;;;;2272248;61;1606;-86
2022/10/11 08:41:36;422906.00;1.41;729.19;22249.00;0.07;39.16;;;;;17.80;12.50;;;;;;2272280;61;1123;-86
2022/10/11 08:44:20;384811.00;1.28;663.69;0.00;0.00;0.62;;;;;18.20;10.50;;;;;;2272289;61;1438;-85
2022/10/11 08:46:56;352673.00;1.18;608.46;0.00;0.00;0.62;;;;;18.50;9.00;;;;;;2272276;61;1983;-87
2022/10/11 08:49:27;529709.00;1.77;912.99;0.00;0.00;0.62;;;;;18.10;10.00;;;;;;2272091;61;1351;-87
2022/10/11 08:52:01;749947.00;2.50;1293.97;152654.00;0.51;264.38;;;;;18.00;10.70;;;;;;2272264;61;1124;-87
2022/10/11 08:54:41;611081.00;2.04;1053.36;42738.00;0.14;74.63;;;;;17.70;10.90;;;;;;2272104;61;1432;-85
2022/10/11 08:57:15;390522.00;1.30;673.51;13005.00;0.04;23.15;;;;;18.20;10.80;;;;;;2272272;61;1131;-87
2022/10/11 08:59:49;430945.00;1.44;743.01;0.00;0.00;0.62;;;;;18.20;10.30;;;;;;2272235;61;1001;-89
2022/10/11 09:02:38;758846.00;2.53;1309.44;55910.00;0.19;97.41;;;;;18.20;11.00;;;;;;2272193;61;970;-86
2022/10/11 09:05:09;620901.00;2.07;1070.32;7264.00;0.02;13.21;;;;;18.60;9.00;;;;;;2272134;61;1388;-87
2022/10/11 09:07:48;571504.00;1.91;985.04;27124.00;0.09;47.60;;;;;18.50;9.40;;;;;;2272187;61;1990;-87
2022/10/11 09:10:39;151813.00;0.51;262.93;0.00;0.00;0.62;;;;;18.50;8.10;;;;;;2272223;61;1075;-87
2022/10/11 09:13:29;469397.00;1.56;809.15;0.00;0.00;0.62;;;;;18.20;9.00;;;;;;2272226;61;1160;-86
2022/10/11 09:16:08;532901.00;1.78;918.49;109004.00;0.36;189.11;;;;;17.90;10.70;;;;;;2272183;61;1067;-86
2022/10/11 09:18:55;447995.00;1.49;772.33;0.00;0.00;0.62;;;;;17.80;9.70;;;;;;2272270;61;1224;-85
2022/10/11 09:21:36;465827.00;1.55;803.01;0.00;0.00;0.62;;;;;17.80;10.40;;;;;;2272096;61;1011;-86
2022/10/11 09:24:26;195725.00;0.65;338.56;0.00;0.00;0.62;;;;;18.00;10.40;;;;;;2272189;61;1368;-86
2022/10/11 09:26:56;479631.00;1.60;826.76;39247.00;0.13;68.59;;;;;18.60;8.70;;;;;;2271438;61;1990;-86
2022/10/11 09:29:44;360525.00;1.20;621.95;22015.00;0.07;38.76;;;;;18.70;8.30;;;;;;2272179;61;1138;-87
2022/10/11 09:32:16;652171.00;2.17;1124.39;93899.00;0.31;163.04;;;;;19.20;7.60;;;;;;2272187;61;1145;-86
2022/10/11 09:34:43;341025.00;1.14;588.44;61131.00;0.20;106.43;;;;;19.10;6.50;;;;;;2272092;61;1374;-86
2022/10/11 09:37:22;456574.00;1.52;787.09;0.00;0.00;0.62;;;;;19.00;6.20;;;;;;2272181;61;1019;-86
2022/10/11 09:39:57;490142.00;1.63;844.85;20292.00;0.07;35.78;;;;;19.20;7.50;;;;;;2272023;61;1473;-86
2022/10/11 09:42:24;783884.00;2.61;1353.03;0.00;0.00;0.62;;;;;19.20;5.60;;;;;;2272035;61;1436;-85
2022/10/11 09:44:52;305004.00;1.02;526.52;0.00;0.00;0.62;;;;;19.40;5.70;;;;;;2272054;61;1237;-87
2022/10/11 09:47:25;250111.00;0.83;432.14;0.00;0.00;0.62;;;;;19.50;5.80;;;;;;2272087;61;1989;-86
2022/10/11 09:49:58;127226.00;0.42;220.55;0.00;0.00;0.62;;;;;19.80;4.50;;;;;;2272103;61;1099;-86